sensor_id;sensor_type;location;lat;lon;timestamp;temperature;humidity
5675;DHT22;2860;54.284;10.158;2023-09-07T00:02:21;16.30;99.90
5675;DHT22;2860;54.284;10.158;2023-09-07T00:04:46;16.30;99.90
5675;DHT22;2860;54.284;10.158;2023-09-07T00:07:12;16.30;99.90
5675;DHT22;2860;54.284;10.158;2023-09-07T00:09:37;16.30;99.90
5675;DHT22;2860;54.284;10.158;2023-09-07T00:12:03;16.30;99.90
5675;DHT22;2860;54.284;10.158;2023-09-07T00:14:28;16.30;99.90
5675;DHT22;2860;54.284;10.158;2023-09-07T00:16:54;16.20;99.90
5675;DHT22;2860;54.284;10.158;2023-09-07T00:19:19;16.20;99.90
5675;DHT22;2860;54.284;10.158;2023-09-07T00:21:45;16.20;99.90
5675;DHT22;2860;54.284;10.158;2023-09-07T00:24:10;16.10;99.90
5675;DHT22;2860;54.284;10.158;2023-09-07T00:26:36;16.10;99.90
5675;DHT22;2860;54.284;10.158;2023-09-07T00:29:01;16.10;99.90
5675;DHT22;2860;54.284;10.158;2023-09-07T00:31:27;16.00;99.90
5675;DHT22;2860;54.284;10.158;2023-09-07T00:33:53;16.00;99.90
5675;DHT22;2860;54.284;10.158;2023-09-07T00:36:18;16.00;99.90
5675;DHT22;2860;54.284;10.158;2023-09-07T00:38:44;15.90;99.90
5675;DHT22;2860;54.284;10.158;2023-09-07T00:41:09;15.90;99.90
5675;DHT22;2860;54.284;10.158;2023-09-07T00:43:35;15.90;99.90
5675;DHT22;2860;54.284;10.158;2023-09-07T00:46:00;15.90;99.90
5675;DHT22;2860;54.284;10.158;2023-09-07T00:48:26;15.90;99.90
5675;DHT22;2860;54.284;10.158;2023-09-07T00:50:52;15.80;99.90
5675;DHT22;2860;54.284;10.158;2023-09-07T00:53:17;15.80;99.90
5675;DHT22;2860;54.284;10.158;2023-09-07T00:55:44;15.80;99.90
5675;DHT22;2860;54.284;10.158;2023-09-07T00:58:10;15.80;99.90
5675;DHT22;2860;54.284;10.158;2023-09-07T01:00:37;15.80;99.90
5675;DHT22;2860;54.284;10.158;2023-09-07T01:03:02;15.80;99.90
5675;DHT22;2860;54.284;10.158;2023-09-07T01:05:40;15.70;99.90
5675;DHT22;2860;54.284;10.158;2023-09-07T01:08:15;15.70;99.90
5675;DHT22;2860;54.284;10.158;2023-09-07T01:10:41;15.70;99.90
5675;DHT22;2860;54.284;10.158;2023-09-07T01:13:06;15.70;99.90
5675;DHT22;2860;54.284;10.158;2023-09-07T01:15:32;15.60;99.90
5675;DHT22;2860;54.284;10.158;2023-09-07T01:17:58;15.60;99.90
5675;DHT22;2860;54.284;10.158;2023-09-07T01:20:25;15.60;99.90
5675;DHT22;2860;54.284;10.158;2023-09-07T01:22:51;15.60;99.90
5675;DHT22;2860;54.284;10.158;2023-09-07T01:25:17;15.60;99.90
5675;DHT22;2860;54.284;10.158;2023-09-07T01:27:43;15.60;99.90
5675;DHT22;2860;54.284;10.158;2023-09-07T01:30:09;15.50;99.90
5675;DHT22;2860;54.284;10.158;2023-09-07T01:32:35;15.50;99.90
5675;DHT22;2860;54.284;10.158;2023-09-07T01:35:04;15.50;99.90
5675;DHT22;2860;54.284;10.158;2023-09-07T01:37:31;15.50;99.90
5675;DHT22;2860;54.284;10.158;2023-09-07T01:39:57;15.50;99.90
5675;DHT22;2860;54.284;10.158;2023-09-07T01:42:23;15.50;99.90
5675;DHT22;2860;54.284;10.158;2023-09-07T01:44:48;15.50;99.90
5675;DHT22;2860;54.284;10.158;2023-09-07T01:47:14;15.50;99.90
5675;DHT22;2860;54.284;10.158;2023-09-07T01:49:40;15.40;99.90
5675;DHT22;2860;54.284;10.158;2023-09-07T01:52:05;15.40;99.90
5675;DHT22;2860;54.284;10.158;2023-09-07T01:54:31;15.40;99.90
5675;DHT22;2860;54.284;10.158;2023-09-07T01:56:57;15.40;99.90
5675;DHT22;2860;54.284;10.158;2023-09-07T01:59:23;15.40;99.90
5675;DHT22;2860;54.284;10.158;2023-09-07T02:01:48;15.40;99.90
5675;DHT22;2860;54.284;10.158;2023-09-07T02:04:14;15.40;99.90
5675;DHT22;2860;54.284;10.158;2023-09-07T02:06:39;15.40;99.90
5675;DHT22;2860;54.284;10.158;2023-09-07T02:09:05;15.40;99.90
5675;DHT22;2860;54.284;10.158;2023-09-07T02:11:30;15.30;99.90
5675;DHT22;2860;54.284;10.158;2023-09-07T02:13:56;15.30;99.90
5675;DHT22;2860;54.284;10.158;2023-09-07T02:16:21;15.30;99.90
5675;DHT22;2860;54.284;10.158;2023-09-07T02:18:49;15.20;99.90
5675;DHT22;2860;54.284;10.158;2023-09-07T02:21:15;15.20;99.90
5675;DHT22;2860;54.284;10.158;2023-09-07T02:23:41;15.20;99.90
5675;DHT22;2860;54.284;10.158;2023-09-07T02:26:06;15.20;99.90
5675;DHT22;2860;54.284;10.158;2023-09-07T02:28:32;15.20;99.90
5675;DHT22;2860;54.284;10.158;2023-09-07T02:31:04;15.20;99.90
5675;DHT22;2860;54.284;10.158;2023-09-07T02:33:30;15.20;99.90
5675;DHT22;2860;54.284;10.158;2023-09-07T02:35:55;15.10;99.90
5675;DHT22;2860;54.284;10.158;2023-09-07T02:38:21;15.10;99.90
5675;DHT22;2860;54.284;10.158;2023-09-07T02:40:46;15.10;99.90
5675;DHT22;2860;54.284;10.158;2023-09-07T02:43:12;15.00;99.90
5675;DHT22;2860;54.284;10.158;2023-09-07T02:45:38;15.00;99.90
5675;DHT22;2860;54.284;10.158;2023-09-07T02:48:04;15.00;99.90
5675;DHT22;2860;54.284;10.158;2023-09-07T02:50:33;15.00;99.90
5675;DHT22;2860;54.284;10.158;2023-09-07T02:52:59;15.00;99.90
5675;DHT22;2860;54.284;10.158;2023-09-07T02:55:25;15.00;99.90
5675;DHT22;2860;54.284;10.158;2023-09-07T02:57:51;15.00;99.90
5675;DHT22;2860;54.284;10.158;2023-09-07T03:00:17;15.00;99.90
5675;DHT22;2860;54.284;10.158;2023-09-07T03:02:43;14.90;99.90
5675;DHT22;2860;54.284;10.158;2023-09-07T03:05:09;14.90;99.90
5675;DHT22;2860;54.284;10.158;2023-09-07T03:07:34;14.90;99.90
5675;DHT22;2860;54.284;10.158;2023-09-07T03:10:00;14.80;99.90
5675;DHT22;2860;54.284;10.158;2023-09-07T03:12:26;14.80;99.90
5675;DHT22;2860;54.284;10.158;2023-09-07T03:14:52;14.80;99.90
5675;DHT22;2860;54.284;10.158;2023-09-07T03:17:18;14.80;99.90
5675;DHT22;2860;54.284;10.158;2023-09-07T03:19:46;14.70;99.90
5675;DHT22;2860;54.284;10.158;2023-09-07T03:22:11;14.70;99.90
5675;DHT22;2860;54.284;10.158;2023-09-07T03:24:37;14.70;99.90
5675;DHT22;2860;54.284;10.158;2023-09-07T03:27:03;14.70;99.90
5675;DHT22;2860;54.284;10.158;2023-09-07T03:29:29;14.70;99.90
5675;DHT22;2860;54.284;10.158;2023-09-07T03:31:55;14.60;99.90
5675;DHT22;2860;54.284;10.158;2023-09-07T03:34:20;14.60;99.90
5675;DHT22;2860;54.284;10.158;2023-09-07T03:36:46;14.60;99.90
5675;DHT22;2860;54.284;10.158;2023-09-07T03:39:12;14.60;99.90
5675;DHT22;2860;54.284;10.158;2023-09-07T03:41:37;14.60;99.90
5675;DHT22;2860;54.284;10.158;2023-09-07T03:44:03;14.60;99.90
5675;DHT22;2860;54.284;10.158;2023-09-07T03:46:29;14.60;99.90
5675;DHT22;2860;54.284;10.158;2023-09-07T03:48:54;14.50;99.90
5675;DHT22;2860;54.284;10.158;2023-09-07T03:51:20;14.50;99.90
5675;DHT22;2860;54.284;10.158;2023-09-07T03:53:45;14.50;99.90
5675;DHT22;2860;54.284;10.158;2023-09-07T03:56:11;14.50;99.90
5675;DHT22;2860;54.284;10.158;2023-09-07T03:58:36;14.40;99.90
5675;DHT22;2860;54.284;10.158;2023-09-07T04:01:02;14.40;99.90
5675;DHT22;2860;54.284;10.158;2023-09-07T04:03:27;14.40;99.90
5675;DHT22;2860;54.284;10.158;2023-09-07T04:05:56;14.30;99.90
5675;DHT22;2860;54.284;10.158;2023-09-07T04:08:21;14.30;99.90
5675;DHT22;2860;54.284;10.158;2023-09-07T04:10:47;14.30;99.90
5675;DHT22;2860;54.284;10.158;2023-09-07T04:13:12;14.20;99.90
5675;DHT22;2860;54.284;10.158;2023-09-07T04:15:44;14.20;99.90
5675;DHT22;2860;54.284;10.158;2023-09-07T04:18:14;14.20;99.90
5675;DHT22;2860;54.284;10.158;2023-09-07T04:20:41;14.20;99.90
5675;DHT22;2860;54.284;10.158;2023-09-07T04:23:06;14.20;99.90
5675;DHT22;2860;54.284;10.158;2023-09-07T04:25:32;14.20;99.90
5675;DHT22;2860;54.284;10.158;2023-09-07T04:28:00;14.20;99.90
5675;DHT22;2860;54.284;10.158;2023-09-07T04:30:26;14.20;99.90
5675;DHT22;2860;54.284;10.158;2023-09-07T04:32:52;14.20;99.90
5675;DHT22;2860;54.284;10.158;2023-09-07T04:35:17;14.10;99.90
5675;DHT22;2860;54.284;10.158;2023-09-07T04:37:43;14.10;99.90
5675;DHT22;2860;54.284;10.158;2023-09-07T04:40:09;14.10;99.90
5675;DHT22;2860;54.284;10.158;2023-09-07T04:42:35;14.10;99.90
5675;DHT22;2860;54.284;10.158;2023-09-07T04:45:01;14.10;99.90
5675;DHT22;2860;54.284;10.158;2023-09-07T04:47:26;14.10;99.90
5675;DHT22;2860;54.284;10.158;2023-09-07T04:49:52;14.10;99.90
5675;DHT22;2860;54.284;10.158;2023-09-07T04:52:17;14.20;99.90
5675;DHT22;2860;54.284;10.158;2023-09-07T04:54:44;14.20;99.90
5675;DHT22;2860;54.284;10.158;2023-09-07T04:57:09;14.20;99.90
5675;DHT22;2860;54.284;10.158;2023-09-07T04:59:35;14.20;99.90
5675;DHT22;2860;54.284;10.158;2023-09-07T05:02:00;14.20;99.90
5675;DHT22;2860;54.284;10.158;2023-09-07T05:04:29;14.30;99.90
5675;DHT22;2860;54.284;10.158;2023-09-07T05:06:56;14.30;99.90
5675;DHT22;2860;54.284;10.158;2023-09-07T05:09:22;14.40;99.90
5675;DHT22;2860;54.284;10.158;2023-09-07T05:11:49;14.40;99.90
5675;DHT22;2860;54.284;10.158;2023-09-07T05:14:14;14.40;99.90
5675;DHT22;2860;54.284;10.158;2023-09-07T05:16:42;14.50;99.90
5675;DHT22;2860;54.284;10.158;2023-09-07T05:19:09;14.60;99.90
5675;DHT22;2860;54.284;10.158;2023-09-07T05:21:34;14.60;99.90
5675;DHT22;2860;54.284;10.158;2023-09-07T05:24:00;14.70;99.90
5675;DHT22;2860;54.284;10.158;2023-09-07T05:26:25;14.80;99.90
5675;DHT22;2860;54.284;10.158;2023-09-07T05:28:51;15.10;99.90
5675;DHT22;2860;54.284;10.158;2023-09-07T05:31:16;15.60;99.90
5675;DHT22;2860;54.284;10.158;2023-09-07T05:33:42;16.10;99.90
5675;DHT22;2860;54.284;10.158;2023-09-07T05:36:07;16.40;99.90
5675;DHT22;2860;54.284;10.158;2023-09-07T05:38:34;16.80;99.90
5675;DHT22;2860;54.284;10.158;2023-09-07T05:41:00;17.10;99.90
5675;DHT22;2860;54.284;10.158;2023-09-07T05:43:25;17.20;99.90
5675;DHT22;2860;54.284;10.158;2023-09-07T05:45:51;17.30;99.90
5675;DHT22;2860;54.284;10.158;2023-09-07T05:48:16;17.50;99.90
5675;DHT22;2860;54.284;10.158;2023-09-07T05:50:43;17.60;99.90
5675;DHT22;2860;54.284;10.158;2023-09-07T05:53:08;17.70;99.90
5675;DHT22;2860;54.284;10.158;2023-09-07T05:55:34;17.80;99.90
5675;DHT22;2860;54.284;10.158;2023-09-07T05:58:03;17.90;99.90
5675;DHT22;2860;54.284;10.158;2023-09-07T06:00:29;18.00;99.90
5675;DHT22;2860;54.284;10.158;2023-09-07T06:02:54;17.80;99.90
5675;DHT22;2860;54.284;10.158;2023-09-07T06:05:20;17.80;99.90
5675;DHT22;2860;54.284;10.158;2023-09-07T06:07:45;17.80;99.90
5675;DHT22;2860;54.284;10.158;2023-09-07T06:10:11;17.70;99.90
5675;DHT22;2860;54.284;10.158;2023-09-07T06:12:36;17.70;99.90
5675;DHT22;2860;54.284;10.158;2023-09-07T06:15:02;17.70;99.90
5675;DHT22;2860;54.284;10.158;2023-09-07T06:17:28;17.80;99.90
5675;DHT22;2860;54.284;10.158;2023-09-07T06:19:55;17.80;99.90
5675;DHT22;2860;54.284;10.158;2023-09-07T06:22:21;17.90;99.90
5675;DHT22;2860;54.284;10.158;2023-09-07T06:24:46;18.00;99.90
5675;DHT22;2860;54.284;10.158;2023-09-07T06:27:12;18.10;99.90
5675;DHT22;2860;54.284;10.158;2023-09-07T06:29:37;18.20;99.90
5675;DHT22;2860;54.284;10.158;2023-09-07T06:32:03;18.20;99.90
5675;DHT22;2860;54.284;10.158;2023-09-07T06:34:28;18.30;99.90
5675;DHT22;2860;54.284;10.158;2023-09-07T06:37:24;18.30;99.90
5675;DHT22;2860;54.284;10.158;2023-09-07T06:39:55;18.40;99.90
5675;DHT22;2860;54.284;10.158;2023-09-07T06:42:20;18.50;99.90
5675;DHT22;2860;54.284;10.158;2023-09-07T06:44:46;18.60;99.90
5675;DHT22;2860;54.284;10.158;2023-09-07T06:47:11;18.70;99.90
5675;DHT22;2860;54.284;10.158;2023-09-07T06:49:40;18.80;99.90
5675;DHT22;2860;54.284;10.158;2023-09-07T06:52:05;18.90;99.90
5675;DHT22;2860;54.284;10.158;2023-09-07T06:54:31;19.00;99.90
5675;DHT22;2860;54.284;10.158;2023-09-07T06:56:56;19.00;99.90
5675;DHT22;2860;54.284;10.158;2023-09-07T06:59:22;19.10;99.90
5675;DHT22;2860;54.284;10.158;2023-09-07T07:01:47;19.10;99.90
5675;DHT22;2860;54.284;10.158;2023-09-07T07:04:13;19.20;99.90
5675;DHT22;2860;54.284;10.158;2023-09-07T07:06:38;19.30;99.90
5675;DHT22;2860;54.284;10.158;2023-09-07T07:09:05;19.50;99.90
5675;DHT22;2860;54.284;10.158;2023-09-07T07:11:31;19.60;99.90
5675;DHT22;2860;54.284;10.158;2023-09-07T07:13:56;19.80;99.90
5675;DHT22;2860;54.284;10.158;2023-09-07T07:16:22;19.80;99.90
5675;DHT22;2860;54.284;10.158;2023-09-07T07:18:47;19.80;99.90
5675;DHT22;2860;54.284;10.158;2023-09-07T07:21:13;19.90;99.90
5675;DHT22;2860;54.284;10.158;2023-09-07T07:23:38;20.00;99.90
5675;DHT22;2860;54.284;10.158;2023-09-07T07:26:04;20.10;99.90
5675;DHT22;2860;54.284;10.158;2023-09-07T07:28:29;20.20;99.90
5675;DHT22;2860;54.284;10.158;2023-09-07T07:30:55;20.40;99.90
5675;DHT22;2860;54.284;10.158;2023-09-07T07:33:21;20.50;99.90
5675;DHT22;2860;54.284;10.158;2023-09-07T07:35:47;20.60;99.90
5675;DHT22;2860;54.284;10.158;2023-09-07T07:38:13;20.70;99.90
5675;DHT22;2860;54.284;10.158;2023-09-07T07:40:40;20.80;99.90
5675;DHT22;2860;54.284;10.158;2023-09-07T07:43:05;20.80;99.90
5675;DHT22;2860;54.284;10.158;2023-09-07T07:45:31;21.00;99.90
5675;DHT22;2860;54.284;10.158;2023-09-07T07:48:01;21.10;99.90
5675;DHT22;2860;54.284;10.158;2023-09-07T07:50:27;21.20;99.90
5675;DHT22;2860;54.284;10.158;2023-09-07T07:53:11;21.30;99.90
5675;DHT22;2860;54.284;10.158;2023-09-07T07:55:38;21.50;99.90
5675;DHT22;2860;54.284;10.158;2023-09-07T07:58:07;21.60;99.90
5675;DHT22;2860;54.284;10.158;2023-09-07T08:00:34;21.80;99.90
5675;DHT22;2860;54.284;10.158;2023-09-07T08:03:01;21.90;99.90
5675;DHT22;2860;54.284;10.158;2023-09-07T08:05:28;21.90;99.90
5675;DHT22;2860;54.284;10.158;2023-09-07T08:07:55;22.00;99.90
5675;DHT22;2860;54.284;10.158;2023-09-07T08:10:21;22.10;99.90
5675;DHT22;2860;54.284;10.158;2023-09-07T08:12:47;22.10;99.90
5675;DHT22;2860;54.284;10.158;2023-09-07T08:15:12;22.20;99.90
5675;DHT22;2860;54.284;10.158;2023-09-07T08:17:38;22.30;99.90
5675;DHT22;2860;54.284;10.158;2023-09-07T08:20:03;22.30;99.90
5675;DHT22;2860;54.284;10.158;2023-09-07T08:22:29;22.30;99.90
5675;DHT22;2860;54.284;10.158;2023-09-07T08:24:54;22.40;99.90
5675;DHT22;2860;54.284;10.158;2023-09-07T08:27:21;22.60;99.90
5675;DHT22;2860;54.284;10.158;2023-09-07T08:29:46;22.70;99.90
5675;DHT22;2860;54.284;10.158;2023-09-07T08:32:17;22.90;99.90
5675;DHT22;2860;54.284;10.158;2023-09-07T08:34:43;22.90;99.90
5675;DHT22;2860;54.284;10.158;2023-09-07T08:37:08;22.90;99.90
5675;DHT22;2860;54.284;10.158;2023-09-07T08:39:34;22.90;99.90
5675;DHT22;2860;54.284;10.158;2023-09-07T08:42:00;22.90;99.90
5675;DHT22;2860;54.284;10.158;2023-09-07T08:44:26;23.00;99.90
5675;DHT22;2860;54.284;10.158;2023-09-07T08:46:52;23.10;99.90
5675;DHT22;2860;54.284;10.158;2023-09-07T08:49:18;23.20;99.90
5675;DHT22;2860;54.284;10.158;2023-09-07T08:51:45;23.40;99.90
5675;DHT22;2860;54.284;10.158;2023-09-07T08:54:12;23.60;99.90
5675;DHT22;2860;54.284;10.158;2023-09-07T08:56:38;23.70;99.90
5675;DHT22;2860;54.284;10.158;2023-09-07T08:59:03;23.70;99.90
5675;DHT22;2860;54.284;10.158;2023-09-07T09:01:30;23.80;99.90
5675;DHT22;2860;54.284;10.158;2023-09-07T09:03:57;23.90;99.90
5675;DHT22;2860;54.284;10.158;2023-09-07T09:06:22;23.90;99.90
5675;DHT22;2860;54.284;10.158;2023-09-07T09:08:54;24.00;99.90
5675;DHT22;2860;54.284;10.158;2023-09-07T09:11:21;24.10;99.90
5675;DHT22;2860;54.284;10.158;2023-09-07T09:13:48;24.20;99.90
5675;DHT22;2860;54.284;10.158;2023-09-07T09:16:14;24.30;99.90
5675;DHT22;2860;54.284;10.158;2023-09-07T09:18:53;24.50;99.90
5675;DHT22;2860;54.284;10.158;2023-09-07T09:21:20;24.60;99.90
5675;DHT22;2860;54.284;10.158;2023-09-07T09:23:48;24.70;99.90
5675;DHT22;2860;54.284;10.158;2023-09-07T09:26:15;24.80;99.90
5675;DHT22;2860;54.284;10.158;2023-09-07T09:28:40;24.80;99.90
5675;DHT22;2860;54.284;10.158;2023-09-07T09:31:06;24.90;99.90
5675;DHT22;2860;54.284;10.158;2023-09-07T09:33:37;25.00;99.90
5675;DHT22;2860;54.284;10.158;2023-09-07T09:36:03;25.10;99.90
5675;DHT22;2860;54.284;10.158;2023-09-07T09:38:29;25.20;99.90
5675;DHT22;2860;54.284;10.158;2023-09-07T09:40:58;25.10;99.90
5675;DHT22;2860;54.284;10.158;2023-09-07T09:43:25;25.00;99.90
5675;DHT22;2860;54.284;10.158;2023-09-07T09:45:51;25.10;99.90
5675;DHT22;2860;54.284;10.158;2023-09-07T09:48:19;25.10;99.90
5675;DHT22;2860;54.284;10.158;2023-09-07T09:50:49;25.20;99.90
5675;DHT22;2860;54.284;10.158;2023-09-07T09:53:16;25.40;99.90
5675;DHT22;2860;54.284;10.158;2023-09-07T09:55:47;25.40;99.90
5675;DHT22;2860;54.284;10.158;2023-09-07T09:58:14;25.50;99.90
5675;DHT22;2860;54.284;10.158;2023-09-07T10:00:48;25.50;99.90
5675;DHT22;2860;54.284;10.158;2023-09-07T10:03:19;25.50;99.90
5675;DHT22;2860;54.284;10.158;2023-09-07T10:05:48;25.60;99.90
5675;DHT22;2860;54.284;10.158;2023-09-07T10:08:15;25.70;99.90
5675;DHT22;2860;54.284;10.158;2023-09-07T10:10:42;25.60;99.90
5675;DHT22;2860;54.284;10.158;2023-09-07T10:13:08;25.60;99.90
5675;DHT22;2860;54.284;10.158;2023-09-07T10:15:34;25.60;99.90
5675;DHT22;2860;54.284;10.158;2023-09-07T10:18:05;25.70;99.90
5675;DHT22;2860;54.284;10.158;2023-09-07T10:21:06;25.80;99.90
5675;DHT22;2860;54.284;10.158;2023-09-07T10:23:40;25.80;99.90
5675;DHT22;2860;54.284;10.158;2023-09-07T10:26:12;25.90;99.90
5675;DHT22;2860;54.284;10.158;2023-09-07T10:28:38;26.00;99.90
5675;DHT22;2860;54.284;10.158;2023-09-07T10:31:05;26.10;99.90
5675;DHT22;2860;54.284;10.158;2023-09-07T10:33:35;26.00;99.90
5675;DHT22;2860;54.284;10.158;2023-09-07T10:36:04;26.00;99.90
5675;DHT22;2860;54.284;10.158;2023-09-07T10:38:35;26.10;99.90
5675;DHT22;2860;54.284;10.158;2023-09-07T10:41:03;26.10;99.90
5675;DHT22;2860;54.284;10.158;2023-09-07T10:43:31;26.10;99.90
5675;DHT22;2860;54.284;10.158;2023-09-07T10:45:58;26.20;99.90
5675;DHT22;2860;54.284;10.158;2023-09-07T10:48:29;26.20;99.90
5675;DHT22;2860;54.284;10.158;2023-09-07T10:50:55;26.30;99.90
5675;DHT22;2860;54.284;10.158;2023-09-07T10:53:30;26.30;99.90
5675;DHT22;2860;54.284;10.158;2023-09-07T10:56:02;26.30;99.90
5675;DHT22;2860;54.284;10.158;2023-09-07T10:58:32;26.40;99.90
5675;DHT22;2860;54.284;10.158;2023-09-07T11:00:59;26.30;99.90
5675;DHT22;2860;54.284;10.158;2023-09-07T11:03:26;26.30;99.90
5675;DHT22;2860;54.284;10.158;2023-09-07T11:06:09;26.30;99.90
5675;DHT22;2860;54.284;10.158;2023-09-07T11:08:35;26.20;99.90
5675;DHT22;2860;54.284;10.158;2023-09-07T11:11:02;26.20;99.90
5675;DHT22;2860;54.284;10.158;2023-09-07T11:13:28;26.30;99.90
5675;DHT22;2860;54.284;10.158;2023-09-07T11:15:55;26.20;99.90
5675;DHT22;2860;54.284;10.158;2023-09-07T11:18:22;26.40;99.90
5675;DHT22;2860;54.284;10.158;2023-09-07T11:20:49;26.30;99.90
5675;DHT22;2860;54.284;10.158;2023-09-07T11:23:15;26.30;99.90
5675;DHT22;2860;54.284;10.158;2023-09-07T11:25:41;26.40;99.90
5675;DHT22;2860;54.284;10.158;2023-09-07T11:28:08;26.50;99.90
5675;DHT22;2860;54.284;10.158;2023-09-07T11:30:34;26.50;99.90
5675;DHT22;2860;54.284;10.158;2023-09-07T11:35:26;26.50;99.90
5675;DHT22;2860;54.284;10.158;2023-09-07T11:37:54;26.50;99.90
5675;DHT22;2860;54.284;10.158;2023-09-07T11:40:19;26.50;99.90
5675;DHT22;2860;54.284;10.158;2023-09-07T11:42:45;26.50;99.90
5675;DHT22;2860;54.284;10.158;2023-09-07T11:45:10;26.60;99.90
5675;DHT22;2860;54.284;10.158;2023-09-07T11:47:38;26.50;99.90
5675;DHT22;2860;54.284;10.158;2023-09-07T11:50:05;26.50;99.90
5675;DHT22;2860;54.284;10.158;2023-09-07T11:52:32;26.50;99.90
5675;DHT22;2860;54.284;10.158;2023-09-07T11:55:00;26.50;99.90
5675;DHT22;2860;54.284;10.158;2023-09-07T11:57:27;26.50;99.90
5675;DHT22;2860;54.284;10.158;2023-09-07T11:59:52;26.50;99.90
5675;DHT22;2860;54.284;10.158;2023-09-07T12:02:18;26.40;99.90
5675;DHT22;2860;54.284;10.158;2023-09-07T12:04:46;26.50;99.90
5675;DHT22;2860;54.284;10.158;2023-09-07T12:07:12;26.50;99.90
5675;DHT22;2860;54.284;10.158;2023-09-07T12:09:38;26.50;99.90
5675;DHT22;2860;54.284;10.158;2023-09-07T12:12:04;26.50;99.90
5675;DHT22;2860;54.284;10.158;2023-09-07T12:14:29;26.50;99.90
5675;DHT22;2860;54.284;10.158;2023-09-07T12:16:56;26.50;99.90
5675;DHT22;2860;54.284;10.158;2023-09-07T12:19:22;26.50;99.90
5675;DHT22;2860;54.284;10.158;2023-09-07T12:21:47;26.50;99.90
5675;DHT22;2860;54.284;10.158;2023-09-07T12:24:13;26.50;99.90
5675;DHT22;2860;54.284;10.158;2023-09-07T12:26:38;26.50;99.90
5675;DHT22;2860;54.284;10.158;2023-09-07T12:29:04;26.40;99.90
5675;DHT22;2860;54.284;10.158;2023-09-07T12:31:30;26.50;99.90
5675;DHT22;2860;54.284;10.158;2023-09-07T12:33:56;26.50;99.90
5675;DHT22;2860;54.284;10.158;2023-09-07T12:36:22;26.50;99.90
5675;DHT22;2860;54.284;10.158;2023-09-07T12:38:47;26.60;99.90
5675;DHT22;2860;54.284;10.158;2023-09-07T12:41:13;26.60;99.90
5675;DHT22;2860;54.284;10.158;2023-09-07T12:43:40;26.50;99.90
5675;DHT22;2860;54.284;10.158;2023-09-07T12:46:05;26.50;99.90
5675;DHT22;2860;54.284;10.158;2023-09-07T12:48:31;26.50;99.90
5675;DHT22;2860;54.284;10.158;2023-09-07T12:50:57;26.60;99.90
5675;DHT22;2860;54.284;10.158;2023-09-07T12:53:22;26.60;99.90
5675;DHT22;2860;54.284;10.158;2023-09-07T12:55:53;26.60;99.90
5675;DHT22;2860;54.284;10.158;2023-09-07T12:58:19;26.60;99.90
5675;DHT22;2860;54.284;10.158;2023-09-07T13:00:44;26.60;99.90
5675;DHT22;2860;54.284;10.158;2023-09-07T13:03:10;26.60;99.90
5675;DHT22;2860;54.284;10.158;2023-09-07T13:05:37;26.60;99.90
5675;DHT22;2860;54.284;10.158;2023-09-07T13:08:02;26.50;99.90
5675;DHT22;2860;54.284;10.158;2023-09-07T13:10:32;26.50;99.90
5675;DHT22;2860;54.284;10.158;2023-09-07T13:12:58;26.50;99.90
5675;DHT22;2860;54.284;10.158;2023-09-07T13:15:23;26.50;99.90
5675;DHT22;2860;54.284;10.158;2023-09-07T13:17:49;26.50;99.90
5675;DHT22;2860;54.284;10.158;2023-09-07T13:20:14;26.50;99.90
5675;DHT22;2860;54.284;10.158;2023-09-07T13:22:41;26.50;99.90
5675;DHT22;2860;54.284;10.158;2023-09-07T13:25:07;26.50;99.90
5675;DHT22;2860;54.284;10.158;2023-09-07T13:27:33;26.50;99.90
5675;DHT22;2860;54.284;10.158;2023-09-07T13:29:58;26.50;99.90
5675;DHT22;2860;54.284;10.158;2023-09-07T13:32:24;26.50;99.90
5675;DHT22;2860;54.284;10.158;2023-09-07T13:34:50;26.50;99.90
5675;DHT22;2860;54.284;10.158;2023-09-07T13:37:15;26.60;99.90
5675;DHT22;2860;54.284;10.158;2023-09-07T13:39:41;26.60;99.90
5675;DHT22;2860;54.284;10.158;2023-09-07T13:42:06;26.60;99.90
5675;DHT22;2860;54.284;10.158;2023-09-07T13:44:32;26.60;99.90
5675;DHT22;2860;54.284;10.158;2023-09-07T13:46:57;26.60;99.90
5675;DHT22;2860;54.284;10.158;2023-09-07T13:49:23;26.60;99.90
5675;DHT22;2860;54.284;10.158;2023-09-07T13:51:48;26.60;99.90
5675;DHT22;2860;54.284;10.158;2023-09-07T13:54:14;26.50;99.90
5675;DHT22;2860;54.284;10.158;2023-09-07T13:56:40;26.50;99.90
5675;DHT22;2860;54.284;10.158;2023-09-07T13:59:07;26.50;99.90
5675;DHT22;2860;54.284;10.158;2023-09-07T14:01:33;26.60;99.90
5675;DHT22;2860;54.284;10.158;2023-09-07T14:03:58;26.50;99.90
5675;DHT22;2860;54.284;10.158;2023-09-07T14:06:24;26.50;99.90
5675;DHT22;2860;54.284;10.158;2023-09-07T14:08:50;26.60;99.90
5675;DHT22;2860;54.284;10.158;2023-09-07T14:11:16;26.60;99.90
5675;DHT22;2860;54.284;10.158;2023-09-07T14:13:42;26.50;99.90
5675;DHT22;2860;54.284;10.158;2023-09-07T14:16:08;26.50;99.90
5675;DHT22;2860;54.284;10.158;2023-09-07T14:18:36;26.40;99.90
5675;DHT22;2860;54.284;10.158;2023-09-07T14:21:01;26.30;99.90
5675;DHT22;2860;54.284;10.158;2023-09-07T14:23:27;26.30;99.90
5675;DHT22;2860;54.284;10.158;2023-09-07T14:25:54;26.40;99.90
5675;DHT22;2860;54.284;10.158;2023-09-07T14:28:19;26.30;99.90
5675;DHT22;2860;54.284;10.158;2023-09-07T14:30:45;26.30;99.90
5675;DHT22;2860;54.284;10.158;2023-09-07T14:33:11;26.30;99.90
5675;DHT22;2860;54.284;10.158;2023-09-07T14:35:36;26.20;99.90
5675;DHT22;2860;54.284;10.158;2023-09-07T14:38:02;26.10;99.90
5675;DHT22;2860;54.284;10.158;2023-09-07T14:40:27;26.20;99.90
5675;DHT22;2860;54.284;10.158;2023-09-07T14:42:53;26.30;99.90
5675;DHT22;2860;54.284;10.158;2023-09-07T14:45:19;26.30;99.90
5675;DHT22;2860;54.284;10.158;2023-09-07T14:47:45;26.30;99.90
5675;DHT22;2860;54.284;10.158;2023-09-07T14:50:10;26.30;99.90
5675;DHT22;2860;54.284;10.158;2023-09-07T14:52:36;26.30;99.90
5675;DHT22;2860;54.284;10.158;2023-09-07T14:55:07;26.20;99.90
5675;DHT22;2860;54.284;10.158;2023-09-07T14:57:33;26.20;99.90
5675;DHT22;2860;54.284;10.158;2023-09-07T14:59:59;26.00;99.90
5675;DHT22;2860;54.284;10.158;2023-09-07T15:02:25;26.00;99.90
5675;DHT22;2860;54.284;10.158;2023-09-07T15:04:51;26.00;99.90
5675;DHT22;2860;54.284;10.158;2023-09-07T15:07:16;25.90;99.90
5675;DHT22;2860;54.284;10.158;2023-09-07T15:09:42;25.90;99.90
5675;DHT22;2860;54.284;10.158;2023-09-07T15:12:07;25.80;99.90
5675;DHT22;2860;54.284;10.158;2023-09-07T15:14:33;25.80;99.90
5675;DHT22;2860;54.284;10.158;2023-09-07T15:16:58;25.70;99.90
5675;DHT22;2860;54.284;10.158;2023-09-07T15:19:24;25.60;99.90
5675;DHT22;2860;54.284;10.158;2023-09-07T15:21:50;25.50;99.90
5675;DHT22;2860;54.284;10.158;2023-09-07T15:24:17;25.50;99.90
5675;DHT22;2860;54.284;10.158;2023-09-07T15:26:44;25.40;99.90
5675;DHT22;2860;54.284;10.158;2023-09-07T15:29:11;25.40;99.90
5675;DHT22;2860;54.284;10.158;2023-09-07T15:31:37;25.20;99.90
5675;DHT22;2860;54.284;10.158;2023-09-07T15:34:03;25.20;99.90
5675;DHT22;2860;54.284;10.158;2023-09-07T15:36:29;25.00;99.90
5675;DHT22;2860;54.284;10.158;2023-09-07T15:38:54;24.90;99.90
5675;DHT22;2860;54.284;10.158;2023-09-07T15:41:20;24.80;99.90
5675;DHT22;2860;54.284;10.158;2023-09-07T15:43:45;24.70;99.90